Tallinn, Estonia

1:48 AM EET on January 23, 2017 (GMT +0200)
Ulemiste | | Change Station

Elev 128 ft 59.41 °N, 24.83 °E | Updated 28 minutes ago

Light Drizzle
Light Drizzle
34 °F
Feels Like 22 °F
N
22
Wind Variable Wind from WSW

Today
High -- | Low -- °F
--% Chance of Precip.
Yesterday
High -- | Low -- °F
Precip. -- in
Pressure 29.98 in
Visibility 3.7 miles
Clouds Overcast 300 ft
Windchill 22 °F
Dew Point 34 °F
Humidity 100%
Rainfall 0.00 in
Snow Depth Not available.
8:50 AM 4:15 PM
Waning Crescent, 23% visible
METAR EETN 222320Z 25019KT 6000 -DZ OVC003 01/01 Q1015 R08/290195
Pressure 29.98 in
Visibility 3.7 miles
Clouds Overcast 300 ft
Windchill 22 °F
Dew Point 34 °F
Humidity 100%
Rainfall 0.00 in
Snow Depth Not available.
8:50 AM 4:15 PM
Waning Crescent, 23% visible
METAR EETN 222320Z 25019KT 6000 -DZ OVC003 01/01 Q1015 R08/290195

Get Your Daily Forecast Email!

Thanks for signing up!

Be on the lookout for a verification email in your inbox.

You'll start receiving the daily forecast at 8 AM.

×

10-Day Weather Forecast

×

Almanac

Astronomy

Jan. 23, 2017 Rise Set
Actual Time
Civil Twilight
Nautical Twilight
Astronomical Twilight
Moon
Length of Visible Light
Length of Day
Tomorrow will be .
, % of the Moon is Illuminated

Today's Extremes

Country Highs Country Lows

Community

WunderPhotos

Upload Photos

1,962,540 photos uploaded!

WunderBlog® & News

Nearby

Air Quality

  Air Quality AQ Index Pollutant
Not available.

Snow Depth

Station Depth Elevation

Earthquake Activity

City Distance Mag. Time & Date
Minimum magnitude displayed is 2.5.

Coastal Water Temperatures

Place Temperature

Stations

Nearby Weather Stations

Station Location Temp. Windchill Dew Point Humidity Wind Precip. Elev Updated Type